createdAt,value
2018-08-17T00:01:18.929Z,4.00
2018-08-17T00:02:18.930Z,4.00
2018-08-17T00:04:13.414Z,4.00
2018-08-17T00:05:13.306Z,4.00
2018-08-17T00:07:07.699Z,4.00
2018-08-17T00:08:07.697Z,4.00
2018-08-17T00:10:02.082Z,4.00
2018-08-17T00:11:02.078Z,4.00
2018-08-17T00:12:56.451Z,4.00
2018-08-17T00:13:56.454Z,4.00
2018-08-17T00:15:50.842Z,4.00
2018-08-17T00:16:50.843Z,4.00
2018-08-17T00:18:45.230Z,4.00
2018-08-17T00:19:45.232Z,4.00
2018-08-17T00:21:39.799Z,4.00
2018-08-17T00:22:39.622Z,4.00
2018-08-17T00:24:33.995Z,4.00
2018-08-17T00:25:33.997Z,4.00
2018-08-17T00:27:28.383Z,4.00
2018-08-17T00:28:28.379Z,4.00
2018-08-17T00:30:27.071Z,4.00
2018-08-17T00:31:27.070Z,4.00
2018-08-17T00:33:21.454Z,4.00
2018-08-17T00:34:21.453Z,4.00
2018-08-17T00:36:15.902Z,4.00
2018-08-17T00:37:15.831Z,4.00
2018-08-17T00:39:10.326Z,4.00
2018-08-17T00:40:10.216Z,4.00
2018-08-17T00:42:04.593Z,4.00
2018-08-17T00:43:04.608Z,4.00
2018-08-17T00:44:58.960Z,4.00
2018-08-17T00:45:58.959Z,4.00
2018-08-17T00:47:53.384Z,4.00
2018-08-17T00:48:53.342Z,4.00
2018-08-17T00:50:47.721Z,4.00
2018-08-17T00:51:47.725Z,4.00
2018-08-17T00:53:42.098Z,4.00
2018-08-17T00:54:42.092Z,4.00
2018-08-17T00:56:36.595Z,4.00
2018-08-17T00:57:36.480Z,4.00
2018-08-17T00:59:30.859Z,4.00
2018-08-17T01:00:30.857Z,4.00
2018-08-17T01:02:25.309Z,4.00
2018-08-17T01:03:25.235Z,4.00
2018-08-17T01:05:24.559Z,4.00
2018-08-17T01:06:24.559Z,4.00
2018-08-17T01:08:18.940Z,4.00
2018-08-17T01:09:18.937Z,4.00
2018-08-17T01:11:13.365Z,4.00
2018-08-17T01:12:13.315Z,4.00
2018-08-17T01:14:07.850Z,8.00
2018-08-17T01:15:07.696Z,4.00
2018-08-17T01:17:02.074Z,4.00
2018-08-17T01:18:02.075Z,4.00
2018-08-17T01:19:56.452Z,4.00
2018-08-17T01:20:56.451Z,4.00
2018-08-17T01:22:50.833Z,4.00
2018-08-17T01:23:50.838Z,4.00
2018-08-17T01:25:45.216Z,8.00
2018-08-17T01:26:45.213Z,4.00
2018-08-17T01:28:39.600Z,4.00
2018-08-17T01:29:39.599Z,4.00
2018-08-17T01:31:34.088Z,4.00
2018-08-17T01:32:33.969Z,4.00
2018-08-17T01:34:28.423Z,4.00
2018-08-17T01:35:28.348Z,4.00
2018-08-17T01:37:22.727Z,4.00
2018-08-17T01:38:22.730Z,4.00
2018-08-17T01:40:17.116Z,4.00
2018-08-17T01:41:17.114Z,4.00
2018-08-17T01:43:11.492Z,4.00
2018-08-17T01:44:11.491Z,4.00
2018-08-17T01:46:05.872Z,4.00
2018-08-17T01:47:05.872Z,4.00
2018-08-17T01:49:00.457Z,4.00
2018-08-17T01:50:00.250Z,4.00
2018-08-17T01:51:54.636Z,4.00
2018-08-17T01:52:54.632Z,4.00
2018-08-17T01:54:49.013Z,4.00
2018-08-17T01:55:49.047Z,4.00
2018-08-17T01:57:43.394Z,4.00
2018-08-17T01:58:43.398Z,4.00
2018-08-17T02:00:37.775Z,4.00
2018-08-17T02:01:37.775Z,4.00
2018-08-17T02:03:32.152Z,4.00
2018-08-17T02:04:32.154Z,4.00
2018-08-17T02:06:26.612Z,4.00
2018-08-17T02:07:26.536Z,4.00
2018-08-17T02:09:20.916Z,4.00
2018-08-17T02:10:20.914Z,4.00
2018-08-17T02:12:15.363Z,4.00
2018-08-17T02:13:15.280Z,4.00
2018-08-17T02:15:09.659Z,4.00
2018-08-17T02:16:09.655Z,4.00
2018-08-17T02:18:04.048Z,4.00
2018-08-17T02:19:04.042Z,4.00
2018-08-17T02:21:02.522Z,4.00
2018-08-17T02:22:02.538Z,4.00
2018-08-17T02:23:57.043Z,4.00
2018-08-17T02:24:56.889Z,4.00
2018-08-17T02:26:51.270Z,4.00
2018-08-17T02:27:51.268Z,4.00
2018-08-17T02:29:45.642Z,4.00
2018-08-17T02:30:45.641Z,4.00
2018-08-17T02:32:40.030Z,8.00
2018-08-17T02:33:40.020Z,4.00
2018-08-17T02:35:34.399Z,4.00
2018-08-17T02:36:34.404Z,4.00
2018-08-17T02:38:30.837Z,4.00
2018-08-17T02:39:28.867Z,4.00
2018-08-17T02:41:24.148Z,4.00
2018-08-17T02:42:24.172Z,4.00
2018-08-17T02:44:18.574Z,4.00
2018-08-17T02:45:18.575Z,4.00
2018-08-17T02:47:16.881Z,4.00
2018-08-17T02:48:16.912Z,4.00
2018-08-17T02:50:16.711Z,4.00
2018-08-17T02:51:16.725Z,4.00
2018-08-17T02:53:10.240Z,4.00
2018-08-17T02:54:10.233Z,4.00
2018-08-17T02:56:04.623Z,4.00
2018-08-17T02:57:04.621Z,4.00
2018-08-17T02:58:59.117Z,4.00
2018-08-17T02:59:59.004Z,4.00
2018-08-17T03:01:53.377Z,4.00
2018-08-17T03:02:53.375Z,4.00
2018-08-17T03:04:47.754Z,4.00
2018-08-17T03:05:47.752Z,4.00
2018-08-17T03:07:42.132Z,4.00
2018-08-17T03:08:42.129Z,4.00
2018-08-17T03:10:36.509Z,4.00
2018-08-17T03:11:36.509Z,4.00
2018-08-17T03:13:30.887Z,4.00
2018-08-17T03:14:30.887Z,4.00
2018-08-17T03:16:25.381Z,4.00
2018-08-17T03:17:25.271Z,4.00
2018-08-17T03:19:19.650Z,4.00
2018-08-17T03:20:19.647Z,8.00
2018-08-17T03:22:14.192Z,8.00
2018-08-17T03:23:14.016Z,8.00
2018-08-17T03:25:08.387Z,8.00
2018-08-17T03:26:08.387Z,8.00
2018-08-17T03:28:02.763Z,8.00
2018-08-17T03:29:02.763Z,8.00
2018-08-17T03:30:57.132Z,8.00
2018-08-17T03:31:57.130Z,8.00
2018-08-17T03:33:51.579Z,4.00
2018-08-17T03:34:51.510Z,4.00
2018-08-17T03:36:45.892Z,8.00
2018-08-17T03:37:45.887Z,8.00
2018-08-17T03:39:40.319Z,12.00
2018-08-17T03:40:40.268Z,12.00
2018-08-17T03:42:34.641Z,16.00
2018-08-17T03:43:34.642Z,8.00
2018-08-17T03:45:29.139Z,12.00
2018-08-17T03:46:29.016Z,16.00
2018-08-17T03:48:23.394Z,16.00
2018-08-17T03:49:23.392Z,16.00
2018-08-17T03:51:17.770Z,20.00
2018-08-17T03:52:17.762Z,24.00
2018-08-17T03:54:12.139Z,28.00
2018-08-17T03:55:12.139Z,32.00
2018-08-17T03:57:06.516Z,36.00
2018-08-17T03:58:06.514Z,40.00
2018-08-17T04:00:00.889Z,48.00
2018-08-17T04:01:00.883Z,56.00
2018-08-17T04:02:55.398Z,64.00
2018-08-17T04:03:55.259Z,72.00
2018-08-17T04:05:49.717Z,80.00
2018-08-17T04:06:49.637Z,84.00
2018-08-17T04:08:44.013Z,96.00
2018-08-17T04:09:44.011Z,108.00
2018-08-17T04:11:38.389Z,124.00
2018-08-17T04:12:38.399Z,132.00
2018-08-17T04:14:32.765Z,156.00
2018-08-17T04:15:32.835Z,168.00
2018-08-17T04:17:27.129Z,192.00
2018-08-17T04:18:27.131Z,208.00
2018-08-17T04:20:21.619Z,232.00
2018-08-17T04:21:21.516Z,252.00
2018-08-17T04:23:15.888Z,284.00
2018-08-17T04:24:15.885Z,300.00
2018-08-17T04:26:10.267Z,332.00
2018-08-17T04:27:10.262Z,348.00
2018-08-17T04:29:04.651Z,376.00
2018-08-17T04:30:04.659Z,388.00
2018-08-17T04:31:59.015Z,424.00
2018-08-17T04:32:59.013Z,440.00
2018-08-17T04:34:53.394Z,468.00
2018-08-17T04:35:53.391Z,484.00
2018-08-17T04:37:47.833Z,524.00
2018-08-17T04:38:47.770Z,556.00
2018-08-17T04:40:42.142Z,600.00
2018-08-17T04:41:42.141Z,620.00
2018-08-17T04:43:36.681Z,692.00
2018-08-17T04:44:36.525Z,780.00
2018-08-17T04:46:30.906Z,1164.00
2018-08-17T04:47:30.905Z,1152.00
2018-08-17T04:49:25.427Z,1280.00
2018-08-17T04:50:25.284Z,1188.00
2018-08-17T04:52:19.660Z,1376.00
2018-08-17T04:53:19.660Z,1668.00
2018-08-17T04:55:14.028Z,1548.00
2018-08-17T04:56:14.035Z,1756.00
2018-08-17T04:58:08.396Z,2688.00
2018-08-17T04:59:08.395Z,1720.00
2018-08-17T05:01:02.981Z,1260.00
2018-08-17T05:02:02.767Z,1320.00
2018-08-17T05:03:57.143Z,1452.00
2018-08-17T05:04:57.141Z,1504.00
2018-08-17T05:06:51.592Z,1528.00
2018-08-17T05:07:51.519Z,1564.00
2018-08-17T05:09:45.898Z,1548.00
2018-08-17T05:10:45.896Z,1584.00
2018-08-17T05:12:40.346Z,1672.00
2018-08-17T05:13:40.275Z,1740.00
2018-08-17T05:15:34.654Z,1968.00
2018-08-17T05:16:34.654Z,2208.00
2018-08-17T05:18:29.145Z,1632.00
2018-08-17T05:19:29.044Z,1496.00
2018-08-17T05:21:23.472Z,2044.00
2018-08-17T05:22:23.439Z,2092.00
2018-08-17T05:24:17.819Z,2588.00
2018-08-17T05:25:17.817Z,2864.00
2018-08-17T05:27:12.196Z,2952.00
2018-08-17T05:28:12.197Z,3160.00
2018-08-17T05:30:06.585Z,3364.00
2018-08-17T05:31:06.585Z,3352.00
2018-08-17T05:33:00.970Z,5680.00
2018-08-17T05:34:00.973Z,4164.00
2018-08-17T05:35:55.477Z,4160.00
2018-08-17T05:36:55.362Z,5292.00
2018-08-17T05:38:49.739Z,6292.00
2018-08-17T05:39:49.741Z,6228.00
2018-08-17T05:41:44.127Z,5532.00
2018-08-17T05:42:44.122Z,4760.00
2018-08-17T05:44:38.504Z,5672.00
2018-08-17T05:45:38.502Z,4240.00
2018-08-17T05:47:32.901Z,9460.00
2018-08-17T05:48:32.896Z,8792.00
2018-08-17T05:50:27.273Z,4228.00
2018-08-17T05:51:27.272Z,4236.00
2018-08-17T05:53:21.935Z,4064.00
2018-08-17T05:54:21.648Z,4060.00
2018-08-17T05:56:16.031Z,4180.00
2018-08-17T05:57:16.029Z,4120.00
2018-08-17T05:59:10.669Z,3784.00
2018-08-17T06:00:10.412Z,3756.00
2018-08-17T06:02:04.806Z,3784.00
2018-08-17T06:03:04.800Z,4152.00
2018-08-17T06:04:59.937Z,3944.00
2018-08-17T06:05:59.245Z,4060.00
2018-08-17T06:07:53.628Z,3804.00
2018-08-17T06:08:53.628Z,3488.00
2018-08-17T06:10:48.127Z,3416.00
2018-08-17T06:11:48.129Z,3816.00
2018-08-17T06:13:42.396Z,3220.00
2018-08-17T06:14:42.394Z,3336.00
2018-08-17T06:16:36.857Z,3228.00
2018-08-17T06:17:36.775Z,3108.00
2018-08-17T06:19:31.164Z,3408.00
2018-08-17T06:20:31.160Z,3564.00
2018-08-17T06:22:25.546Z,3496.00
2018-08-17T06:23:25.545Z,3136.00
2018-08-17T06:25:19.930Z,3348.00
2018-08-17T06:26:19.925Z,3284.00
2018-08-17T06:28:14.419Z,2576.00
2018-08-17T06:29:14.309Z,2672.00
2018-08-17T06:31:08.692Z,2440.00
2018-08-17T06:32:08.691Z,2460.00
2018-08-17T06:34:03.068Z,2260.00
2018-08-17T06:35:03.113Z,2208.00
2018-08-17T06:36:57.454Z,2188.00
2018-08-17T06:37:57.448Z,2196.00
2018-08-17T06:39:51.830Z,2120.00
2018-08-17T06:40:51.830Z,2108.00
2018-08-17T06:42:46.210Z,2120.00
2018-08-17T06:43:46.210Z,2084.00
2018-08-17T06:45:40.735Z,2084.00
2018-08-17T06:46:40.611Z,2104.00
2018-08-17T06:48:35.027Z,2144.00
2018-08-17T06:49:34.988Z,2144.00
2018-08-17T06:51:29.403Z,2156.00
2018-08-17T06:52:29.389Z,2184.00
2018-08-17T06:54:23.777Z,2352.00
2018-08-17T06:55:23.770Z,2444.00
2018-08-17T06:57:18.280Z,2488.00
2018-08-17T06:58:18.154Z,2484.00
2018-08-17T07:00:12.541Z,2508.00
2018-08-17T07:01:12.534Z,2492.00
2018-08-17T07:03:07.023Z,2464.00
2018-08-17T07:04:06.939Z,2416.00
2018-08-17T07:06:01.317Z,2344.00
2018-08-17T07:07:01.326Z,2288.00
2018-08-17T07:08:55.750Z,2196.00
2018-08-17T07:09:55.699Z,2204.00
2018-08-17T07:11:50.082Z,2172.00
2018-08-17T07:12:50.083Z,2208.00
2018-08-17T07:14:44.466Z,2248.00
2018-08-17T07:15:44.463Z,2288.00
2018-08-17T07:17:38.849Z,2312.00
2018-08-17T07:18:38.846Z,2296.00
2018-08-17T07:20:37.366Z,2252.00
2018-08-17T07:21:37.306Z,2232.00
2018-08-17T07:23:31.667Z,2256.00
2018-08-17T07:24:31.675Z,2320.00
2018-08-17T07:26:26.043Z,2368.00
2018-08-17T07:27:26.045Z,2356.00
2018-08-17T07:29:20.456Z,2316.00
2018-08-17T07:30:20.429Z,2296.00
2018-08-17T07:32:14.812Z,2184.00
2018-08-17T07:33:14.813Z,2132.00
2018-08-17T07:35:09.196Z,2100.00
2018-08-17T07:36:09.197Z,2096.00
2018-08-17T07:38:03.740Z,2124.00
2018-08-17T07:39:03.629Z,2140.00
2018-08-17T07:40:57.972Z,2204.00
2018-08-17T07:41:57.972Z,2228.00
2018-08-17T07:43:52.366Z,2244.00
2018-08-17T07:44:52.360Z,2240.00
2018-08-17T07:46:46.741Z,2224.00
2018-08-17T07:47:46.751Z,2236.00
2018-08-17T07:49:41.127Z,2248.00
2018-08-17T07:50:41.125Z,2236.00
2018-08-17T07:52:39.762Z,2216.00
2018-08-17T07:53:39.728Z,2176.00
2018-08-17T07:55:34.763Z,2088.00
2018-08-17T07:56:34.106Z,2076.00
2018-08-17T07:58:27.560Z,2104.00
2018-08-17T07:59:27.565Z,2104.00
2018-08-17T08:01:22.074Z,2120.00
2018-08-17T08:02:21.953Z,2140.00
2018-08-17T08:04:16.336Z,2124.00
2018-08-17T08:05:16.337Z,2104.00
2018-08-17T08:07:10.790Z,2100.00
2018-08-17T08:08:10.718Z,2108.00
2018-08-17T08:10:05.175Z,2124.00
2018-08-17T08:11:05.149Z,2132.00
2018-08-17T08:13:01.594Z,2156.00
2018-08-17T08:14:01.529Z,2160.00
2018-08-17T08:15:01.518Z,2152.00
2018-08-17T08:16:01.536Z,2180.00
2018-08-17T08:17:01.520Z,2152.00
2018-08-17T08:18:01.522Z,2148.00
2018-08-17T08:19:01.530Z,2148.00
2018-08-17T08:20:01.536Z,2156.00
2018-08-17T08:21:01.533Z,2164.00
2018-08-17T08:22:01.537Z,2176.00
2018-08-17T08:23:01.544Z,2188.00
2018-08-17T08:24:01.548Z,2200.00
2018-08-17T08:25:01.551Z,2212.00
2018-08-17T08:26:01.592Z,2224.00
2018-08-17T08:27:01.714Z,2236.00
2018-08-17T08:28:01.557Z,2248.00
2018-08-17T08:29:01.562Z,2256.00
2018-08-17T08:30:01.571Z,2264.00
2018-08-17T08:31:01.573Z,2280.00
2018-08-17T08:32:01.575Z,2292.00
2018-08-17T08:33:01.578Z,2308.00
2018-08-17T08:34:01.582Z,2324.00
2018-08-17T08:35:01.585Z,2340.00
2018-08-17T08:36:01.593Z,2360.00
2018-08-17T08:37:01.624Z,2384.00
2018-08-17T08:38:01.597Z,2396.00
2018-08-17T08:39:01.601Z,2412.00
2018-08-17T08:40:01.684Z,2416.00
2018-08-17T08:41:01.608Z,2440.00
2018-08-17T08:42:01.619Z,2464.00
2018-08-17T08:43:01.617Z,2484.00
2018-08-17T08:44:01.621Z,2512.00
2018-08-17T08:45:01.624Z,2536.00
2018-08-17T08:46:01.695Z,2564.00
2018-08-17T08:47:01.636Z,2600.00
2018-08-17T08:48:01.637Z,2616.00
2018-08-17T08:49:01.639Z,2640.00
2018-08-17T08:50:01.644Z,2652.00
2018-08-17T08:51:01.648Z,2656.00
2018-08-17T08:52:01.657Z,2660.00
2018-08-17T08:53:01.656Z,2656.00
2018-08-17T08:54:01.664Z,2668.00
2018-08-17T08:55:01.664Z,2692.00
2018-08-17T08:56:01.818Z,2732.00
2018-08-17T08:57:01.677Z,2772.00
2018-08-17T08:58:01.697Z,2824.00
2018-08-17T08:59:01.684Z,2860.00
2018-08-17T09:00:01.701Z,2908.00
2018-08-17T09:01:01.688Z,5180.00
2018-08-17T09:02:01.911Z,11108.00
2018-08-17T09:03:01.703Z,14244.00
2018-08-17T09:04:01.704Z,19296.00
2018-08-17T09:05:01.705Z,26496.00
2018-08-17T09:06:01.713Z,27136.00
2018-08-17T09:07:01.718Z,27520.00
2018-08-17T09:08:01.719Z,28608.00
2018-08-17T09:09:01.724Z,28480.00
2018-08-17T09:10:01.768Z,27968.00
2018-08-17T09:11:01.766Z,27744.00
2018-08-17T09:12:01.742Z,26656.00
2018-08-17T09:13:01.748Z,21376.00
2018-08-17T09:14:01.753Z,13736.00
2018-08-17T09:15:01.760Z,6764.00
2018-08-17T09:16:01.769Z,3372.00
2018-08-17T09:17:01.777Z,3352.00
2018-08-17T09:18:01.781Z,3408.00
2018-08-17T09:19:01.792Z,3428.00
2018-08-17T09:20:01.796Z,3468.00
2018-08-17T09:21:01.803Z,3492.00
2018-08-17T09:22:01.811Z,3668.00
2018-08-17T09:23:01.820Z,3940.00
2018-08-17T09:24:01.826Z,4060.00
2018-08-17T09:25:01.834Z,4164.00
2018-08-17T09:26:01.839Z,4460.00
2018-08-17T09:27:01.848Z,4948.00
2018-08-17T09:28:01.856Z,5632.00
2018-08-17T09:29:01.886Z,5728.00
2018-08-17T09:30:01.870Z,5640.00
2018-08-17T09:31:01.873Z,5480.00
2018-08-17T09:32:01.887Z,5268.00
2018-08-17T09:33:01.902Z,5064.00
2018-08-17T09:34:01.893Z,4800.00
2018-08-17T09:35:01.904Z,4652.00
2018-08-17T09:36:01.959Z,4556.00
2018-08-17T09:37:01.916Z,4056.00
2018-08-17T09:38:01.934Z,4060.00
2018-08-17T09:39:01.938Z,4476.00
2018-08-17T09:40:01.934Z,4208.00
2018-08-17T09:41:01.950Z,4032.00
2018-08-17T09:42:01.989Z,3888.00
2018-08-17T09:43:01.958Z,3872.00
2018-08-17T09:44:01.962Z,3756.00
2018-08-17T09:45:01.974Z,3828.00
2018-08-17T09:46:01.972Z,3824.00
2018-08-17T09:47:02.234Z,3656.00
2018-08-17T09:48:01.990Z,3652.00
2018-08-17T09:49:03.038Z,3948.00
2018-08-17T09:50:01.996Z,3596.00
2018-08-17T09:51:02.002Z,3400.00
2018-08-17T09:52:02.010Z,3396.00
2018-08-17T09:53:02.016Z,3360.00
2018-08-17T09:54:02.021Z,3320.00
2018-08-17T09:55:02.034Z,3252.00
2018-08-17T09:56:02.034Z,3220.00
2018-08-17T09:57:02.606Z,3208.00
2018-08-17T09:58:03.048Z,3156.00
2018-08-17T09:59:02.062Z,3208.00
2018-08-17T10:00:02.070Z,3316.00
2018-08-17T10:01:02.063Z,3484.00
2018-08-17T10:02:02.072Z,3604.00
2018-08-17T10:03:02.075Z,3740.00
2018-08-17T10:04:02.087Z,3836.00
2018-08-17T10:05:02.089Z,3992.00
2018-08-17T10:06:02.093Z,4052.00
2018-08-17T10:07:02.101Z,4020.00
2018-08-17T10:08:02.108Z,4092.00
2018-08-17T10:09:02.114Z,4276.00
2018-08-17T10:10:02.122Z,4228.00
2018-08-17T10:11:02.135Z,3924.00
2018-08-17T10:12:02.133Z,3748.00
2018-08-17T10:13:02.164Z,3428.00
2018-08-17T10:14:02.140Z,2932.00
2018-08-17T10:15:02.173Z,2788.00
2018-08-17T10:16:02.153Z,2784.00
2018-08-17T10:17:02.169Z,2868.00
2018-08-17T10:18:02.170Z,2852.00
2018-08-17T10:19:02.177Z,2868.00
2018-08-17T10:20:02.227Z,3036.00
2018-08-17T10:21:02.241Z,3260.00
2018-08-17T10:22:02.486Z,3492.00
2018-08-17T10:23:02.202Z,3512.00
2018-08-17T10:24:02.199Z,3528.00
2018-08-17T10:25:02.206Z,3996.00
2018-08-17T10:26:02.215Z,3836.00
2018-08-17T10:27:02.218Z,3828.00
2018-08-17T10:28:02.228Z,3784.00
2018-08-17T10:29:02.229Z,3648.00
2018-08-17T10:30:02.235Z,3604.00
2018-08-17T10:31:02.243Z,3532.00
2018-08-17T10:32:02.247Z,3332.00
2018-08-17T10:33:02.265Z,3300.00
2018-08-17T10:34:02.345Z,3280.00
2018-08-17T10:35:02.268Z,3300.00
2018-08-17T10:36:02.272Z,3312.00
2018-08-17T10:37:02.279Z,3304.00
2018-08-17T10:38:02.286Z,3452.00
2018-08-17T10:39:02.289Z,3344.00
2018-08-17T10:40:02.297Z,3308.00
2018-08-17T10:41:02.318Z,3316.00
2018-08-17T10:42:02.310Z,3384.00
2018-08-17T10:43:02.319Z,3488.00
2018-08-17T10:44:02.318Z,3652.00
2018-08-17T10:45:02.327Z,4040.00
2018-08-17T10:46:02.328Z,4828.00
2018-08-17T10:47:02.335Z,6364.00
2018-08-17T10:48:02.342Z,12940.00
2018-08-17T10:49:02.389Z,28512.00
2018-08-17T10:50:02.354Z,45696.00
2018-08-17T10:51:02.359Z,41952.00
2018-08-17T10:52:02.365Z,39936.00
2018-08-17T10:53:02.372Z,31616.00
2018-08-17T10:54:02.379Z,16064.00
2018-08-17T10:55:02.387Z,8944.00
2018-08-17T10:56:02.395Z,13488.00
2018-08-17T10:57:02.400Z,10084.00
2018-08-17T10:58:02.407Z,9476.00
2018-08-17T10:59:02.415Z,8700.00
2018-08-17T11:00:02.427Z,8336.00
2018-08-17T11:01:02.434Z,7712.00
2018-08-17T11:02:02.441Z,7356.00
2018-08-17T11:03:02.454Z,7852.00
2018-08-17T11:04:02.456Z,7144.00
2018-08-17T11:05:02.467Z,6376.00
2018-08-17T11:06:02.474Z,6072.00
2018-08-17T11:07:02.479Z,4252.00
2018-08-17T11:08:02.494Z,3860.00
2018-08-17T11:09:02.505Z,3824.00
2018-08-17T11:10:02.503Z,3468.00
2018-08-17T11:11:02.550Z,3356.00
2018-08-17T11:12:02.517Z,3132.00
2018-08-17T11:13:02.523Z,3072.00
2018-08-17T11:14:02.531Z,3012.00
2018-08-17T11:15:02.541Z,3040.00
2018-08-17T11:16:02.544Z,3024.00
2018-08-17T11:17:02.630Z,2844.00
2018-08-17T11:18:02.561Z,2728.00
2018-08-17T11:19:02.568Z,2636.00
2018-08-17T11:20:02.575Z,2628.00
2018-08-17T11:21:02.581Z,2620.00
2018-08-17T11:22:02.600Z,2676.00
2018-08-17T11:23:02.667Z,2784.00
2018-08-17T11:24:02.603Z,2664.00
2018-08-17T11:25:02.612Z,2596.00
2018-08-17T11:26:02.616Z,2596.00
2018-08-17T11:27:02.626Z,2564.00
2018-08-17T11:28:02.630Z,2592.00
2018-08-17T11:29:02.635Z,2728.00
2018-08-17T11:30:02.648Z,2792.00
2018-08-17T11:31:02.650Z,2820.00
2018-08-17T11:32:02.655Z,2848.00
2018-08-17T11:33:02.698Z,2956.00
2018-08-17T11:34:02.668Z,3236.00
2018-08-17T11:35:02.675Z,3960.00
2018-08-17T11:36:02.681Z,5360.00
2018-08-17T11:37:02.702Z,5636.00
2018-08-17T11:38:02.692Z,5736.00
2018-08-17T11:39:02.700Z,5772.00
2018-08-17T11:40:02.705Z,6028.00
2018-08-17T11:41:02.713Z,5996.00
2018-08-17T11:42:02.718Z,5864.00
2018-08-17T11:43:02.724Z,5460.00
2018-08-17T11:44:02.740Z,5288.00
2018-08-17T11:45:02.743Z,5280.00
2018-08-17T11:46:02.759Z,5544.00
2018-08-17T11:47:02.758Z,5652.00
2018-08-17T11:48:02.762Z,5848.00
2018-08-17T11:49:02.762Z,6132.00
2018-08-17T11:50:02.776Z,6196.00
2018-08-17T11:51:02.779Z,6080.00
2018-08-17T11:52:02.782Z,5888.00
2018-08-17T11:53:02.787Z,5796.00
2018-08-17T11:54:02.942Z,5732.00
2018-08-17T11:55:02.801Z,5896.00
2018-08-17T11:56:02.811Z,6288.00
2018-08-17T11:57:02.815Z,5736.00
2018-08-17T11:58:02.822Z,5408.00
2018-08-17T11:59:02.828Z,6280.00
2018-08-17T12:00:02.835Z,6636.00
2018-08-17T12:01:02.846Z,6476.00
2018-08-17T12:02:02.967Z,5900.00
2018-08-17T12:03:02.852Z,6096.00
2018-08-17T12:04:02.859Z,5672.00
2018-08-17T12:05:02.864Z,5188.00
2018-08-17T12:06:02.871Z,5144.00
2018-08-17T12:07:02.879Z,5508.00
2018-08-17T12:08:02.967Z,5908.00
2018-08-17T12:09:02.892Z,6536.00
2018-08-17T12:10:02.907Z,6468.00
2018-08-17T12:11:02.905Z,6504.00
2018-08-17T12:12:02.912Z,5924.00
2018-08-17T12:13:02.918Z,5748.00
2018-08-17T12:14:02.926Z,6088.00
2018-08-17T12:15:02.932Z,6240.00
2018-08-17T12:16:02.939Z,5972.00
2018-08-17T12:17:02.945Z,6040.00
2018-08-17T12:18:02.951Z,6184.00
2018-08-17T12:19:02.960Z,6432.00
2018-08-17T12:20:02.967Z,6760.00
2018-08-17T12:21:02.987Z,6840.00
2018-08-17T12:22:02.985Z,6688.00
2018-08-17T12:23:03.003Z,6588.00
2018-08-17T12:24:02.992Z,6196.00
2018-08-17T12:25:03.072Z,6072.00
2018-08-17T12:26:03.004Z,5852.00
2018-08-17T12:27:03.012Z,5444.00
2018-08-17T12:28:03.020Z,5096.00
2018-08-17T12:29:03.025Z,5460.00
2018-08-17T12:30:03.031Z,5768.00
2018-08-17T12:31:03.037Z,5912.00
2018-08-17T12:32:03.105Z,6088.00
2018-08-17T12:33:03.050Z,6216.00
2018-08-17T12:34:03.057Z,6220.00
2018-08-17T12:35:03.063Z,6244.00
2018-08-17T12:36:03.071Z,6128.00
2018-08-17T12:37:03.077Z,5688.00
2018-08-17T12:38:03.084Z,5808.00
2018-08-17T12:39:03.096Z,5520.00
2018-08-17T12:40:03.105Z,5684.00
2018-08-17T12:41:03.103Z,5796.00
2018-08-17T12:42:03.114Z,5468.00
2018-08-17T12:43:03.117Z,5416.00
2018-08-17T12:44:03.124Z,5200.00
2018-08-17T12:45:03.130Z,5204.00
2018-08-17T12:46:03.138Z,5504.00
2018-08-17T12:47:03.143Z,5756.00
2018-08-17T12:48:03.150Z,5156.00
2018-08-17T12:49:03.156Z,4416.00
2018-08-17T12:50:03.164Z,4476.00
2018-08-17T12:51:03.179Z,4284.00
2018-08-17T12:52:03.178Z,4144.00
2018-08-17T12:53:03.184Z,3928.00
2018-08-17T12:54:03.192Z,3764.00
2018-08-17T12:55:03.197Z,3764.00
2018-08-17T12:56:03.204Z,3752.00
2018-08-17T12:57:03.223Z,3648.00
2018-08-17T12:58:03.227Z,3556.00
2018-08-17T12:59:03.224Z,3584.00
2018-08-17T13:00:03.233Z,3968.00
2018-08-17T13:01:03.238Z,4700.00
2018-08-17T13:02:03.243Z,4944.00
2018-08-17T13:03:03.254Z,5128.00
2018-08-17T13:04:03.331Z,5620.00
2018-08-17T13:05:03.302Z,5536.00
2018-08-17T13:06:03.271Z,5456.00
2018-08-17T13:07:03.281Z,5648.00
2018-08-17T13:08:03.284Z,5668.00
2018-08-17T13:09:03.293Z,5496.00
2018-08-17T13:10:03.296Z,5336.00
2018-08-17T13:11:03.304Z,5092.00
2018-08-17T13:12:03.312Z,4716.00
2018-08-17T13:13:03.337Z,4340.00
2018-08-17T13:14:03.328Z,4344.00
2018-08-17T13:15:03.335Z,4304.00
2018-08-17T13:16:03.338Z,4268.00
2018-08-17T13:17:03.345Z,4768.00
2018-08-17T13:18:03.354Z,4756.00
2018-08-17T13:19:03.365Z,4316.00
2018-08-17T13:20:03.365Z,4412.00
2018-08-17T13:21:03.375Z,4640.00
2018-08-17T13:22:03.388Z,4568.00
2018-08-17T13:23:03.398Z,4544.00
2018-08-17T13:24:03.393Z,3880.00
2018-08-17T13:25:03.401Z,3408.00
2018-08-17T13:26:03.407Z,3444.00
2018-08-17T13:27:03.415Z,3440.00
2018-08-17T13:28:03.425Z,3780.00
2018-08-17T13:29:03.429Z,4164.00
2018-08-17T13:30:03.439Z,4208.00
2018-08-17T13:31:03.441Z,3724.00
2018-08-17T13:32:03.448Z,3448.00
2018-08-17T13:33:03.457Z,3304.00
2018-08-17T13:34:03.459Z,3484.00
2018-08-17T13:35:03.472Z,3788.00
2018-08-17T13:36:03.510Z,3988.00
2018-08-17T13:37:03.482Z,3688.00
2018-08-17T13:38:03.490Z,3804.00
2018-08-17T13:39:03.495Z,3700.00
2018-08-17T13:40:03.577Z,3660.00
2018-08-17T13:41:03.513Z,3796.00
2018-08-17T13:42:03.511Z,3884.00
2018-08-17T13:43:03.519Z,3948.00
2018-08-17T13:44:03.533Z,3944.00
2018-08-17T13:45:03.533Z,3820.00
2018-08-17T13:46:03.538Z,3752.00
2018-08-17T13:47:03.545Z,3668.00
2018-08-17T13:48:03.553Z,3924.00
2018-08-17T13:49:03.640Z,3852.00
2018-08-17T13:50:03.565Z,3684.00
2018-08-17T13:51:03.570Z,3544.00
2018-08-17T13:52:03.577Z,3484.00
2018-08-17T13:53:03.586Z,3544.00
2018-08-17T13:54:03.595Z,3600.00
2018-08-17T13:55:03.608Z,3500.00
2018-08-17T13:56:03.604Z,3468.00
2018-08-17T13:57:03.609Z,3480.00
2018-08-17T13:58:03.617Z,3524.00
2018-08-17T13:59:03.623Z,3508.00
2018-08-17T14:00:03.646Z,3540.00
2018-08-17T14:01:03.637Z,3320.00
2018-08-17T14:02:03.700Z,3488.00
2018-08-17T14:03:03.655Z,3588.00
2018-08-17T14:04:03.657Z,3576.00
2018-08-17T14:05:03.687Z,3488.00
2018-08-17T14:06:03.671Z,3504.00
2018-08-17T14:07:03.676Z,3580.00
2018-08-17T14:08:03.682Z,3644.00
2018-08-17T14:09:03.719Z,3568.00
2018-08-17T14:10:03.760Z,3476.00
2018-08-17T14:11:03.720Z,3448.00
2018-08-17T14:12:03.711Z,3416.00
2018-08-17T14:13:03.713Z,3420.00
2018-08-17T14:14:03.737Z,3416.00
2018-08-17T14:15:03.730Z,3420.00
2018-08-17T14:16:03.761Z,3352.00
2018-08-17T14:17:03.744Z,3280.00
2018-08-17T14:18:03.748Z,3256.00
2018-08-17T14:19:03.755Z,3400.00
2018-08-17T14:20:03.766Z,3488.00
2018-08-17T14:21:03.772Z,3584.00
2018-08-17T14:22:03.775Z,3668.00
2018-08-17T14:23:03.794Z,3728.00
2018-08-17T14:24:03.788Z,3692.00
2018-08-17T14:25:03.804Z,3724.00
2018-08-17T14:26:03.803Z,3668.00
2018-08-17T14:27:03.807Z,3504.00
2018-08-17T14:28:03.816Z,3432.00
2018-08-17T14:29:03.829Z,3472.00
2018-08-17T14:30:03.826Z,3588.00
2018-08-17T14:31:03.835Z,3616.00
2018-08-17T14:32:03.840Z,3664.00
2018-08-17T14:33:03.845Z,3748.00
2018-08-17T14:34:03.854Z,3960.00
2018-08-17T14:35:03.865Z,4116.00
2018-08-17T14:36:03.865Z,3980.00
2018-08-17T14:37:03.871Z,3840.00
2018-08-17T14:38:03.879Z,3592.00
2018-08-17T14:39:03.895Z,3904.00
2018-08-17T14:40:03.890Z,4020.00
2018-08-17T14:41:03.895Z,4088.00
2018-08-17T14:42:03.908Z,4156.00
2018-08-17T14:43:03.909Z,4156.00
2018-08-17T14:44:03.917Z,4416.00
2018-08-17T14:45:03.958Z,4176.00
2018-08-17T14:46:03.930Z,4056.00
2018-08-17T14:47:03.935Z,3836.00
2018-08-17T14:48:03.943Z,3416.00
2018-08-17T14:49:03.975Z,3156.00
2018-08-17T14:50:03.958Z,3424.00
2018-08-17T14:51:03.971Z,3472.00
2018-08-17T14:52:03.969Z,3500.00
2018-08-17T14:53:03.987Z,3572.00
2018-08-17T14:54:03.981Z,3696.00
2018-08-17T14:55:03.986Z,3700.00